Time;durP1;ratioP1;P1;durP2;ratioP2;P2;SDS_P1;SDS_P2;PMS_P1;PMS_P2;Temp;Humidity;BMP_temperature;BMP_pressure;BME280_temperature;BME280_humidity;BME280_pressure;Samples;Min_cycle;Max_cycle;Signal;HPM_P1;HPM_P2
2022/09/16 00:00:19;;;;;;;2.77;2.58;;;;;;;14.68;100.00;98045.64;1787819;80;21041;-76
2022/09/16 00:02:46;;;;;;;2.60;2.40;;;;;;;14.66;100.00;98042.27;1788020;80;20987;-75
2022/09/16 00:05:13;;;;;;;3.52;2.27;;;;;;;14.63;100.00;98030.58;1788192;80;21018;-76
2022/09/16 00:07:39;;;;;;;2.20;2.10;;;;;;;14.60;100.00;98026.84;1787968;80;21143;-76
2022/09/16 00:10:07;;;;;;;2.50;2.30;;;;;;;14.58;100.00;98031.38;1787860;80;21058;-76
2022/09/16 00:12:33;;;;;;;3.70;2.72;;;;;;;14.57;100.00;98042.42;1787992;80;21066;-76
2022/09/16 00:15:00;;;;;;;2.52;2.33;;;;;;;14.56;100.00;98039.42;1787878;80;21034;-75
2022/09/16 00:17:26;;;;;;;2.50;2.30;;;;;;;14.56;100.00;98031.48;1788270;80;21046;-76
2022/09/16 00:19:53;;;;;;;4.00;2.60;;;;;;;14.56;100.00;98020.03;1788195;80;21064;-76
2022/09/16 00:22:20;;;;;;;2.62;2.30;;;;;;;14.55;100.00;98021.02;1787906;80;21029;-76
2022/09/16 00:24:47;;;;;;;2.62;2.37;;;;;;;14.53;100.00;98017.64;1788264;80;21073;-76
2022/09/16 00:27:14;;;;;;;5.55;2.52;;;;;;;14.52;100.00;98014.13;1788064;80;21014;-75
2022/09/16 00:29:40;;;;;;;3.83;2.40;;;;;;;14.51;100.00;98015.11;1788258;80;20975;-76
2022/09/16 00:32:07;;;;;;;2.50;2.30;;;;;;;14.52;100.00;98015.45;1788106;80;21599;-76
2022/09/16 00:34:33;;;;;;;2.77;2.40;;;;;;;14.52;100.00;98025.20;1788066;80;20924;-76
2022/09/16 00:37:02;;;;;;;3.00;2.80;;;;;;;14.54;100.00;98031.22;1788361;80;21058;-76
2022/09/16 00:39:29;;;;;;;3.10;2.87;;;;;;;14.53;100.00;98026.42;1788268;80;21148;-77
2022/09/16 00:41:55;;;;;;;3.98;2.62;;;;;;;14.52;100.00;98029.17;1788433;80;20972;-76
2022/09/16 00:44:53;;;;;;;3.08;2.55;;;;;;;14.49;100.00;98031.10;1788152;80;21247;-76
2022/09/16 00:47:27;;;;;;;3.12;2.85;;;;;;;14.46;100.00;98031.33;1788143;80;20994;-76
2022/09/16 00:49:55;;;;;;;;;;;;;;;14.44;100.00;98031.92;1790395;80;21054;-76
2022/09/16 00:52:22;;;;;;;3.00;2.80;;;;;;;14.43;100.00;98044.78;1771072;81;20188;-76
2022/09/16 00:54:48;;;;;;;3.08;2.40;;;;;;;14.39;100.00;98043.78;1770871;81;20988;-76
2022/09/16 00:57:15;;;;;;;3.40;2.60;;;;;;;14.39;100.00;98044.66;1770800;80;21177;-75
2022/09/16 00:59:47;;;;;;;6.47;2.70;;;;;;;14.37;100.00;98047.03;1773068;80;21027;-75
2022/09/16 01:02:17;;;;;;;3.98;2.90;;;;;;;14.36;100.00;98051.48;1773280;80;21645;-76
2022/09/16 01:05:00;;;;;;;3.17;2.77;;;;;;;14.34;100.00;98052.55;1774197;80;21043;-76
2022/09/16 01:07:45;;;;;;;3.50;3.20;;;;;;;14.33;100.00;98057.00;1773903;80;21098;-76
2022/09/16 01:10:19;;;;;;;3.75;3.30;;;;;;;14.31;100.00;98060.24;1774329;80;21503;-76
2022/09/16 01:12:56;;;;;;;5.03;3.65;;;;;;;14.27;100.00;98062.27;1773760;80;21511;-77
2022/09/16 01:15:42;;;;;;;5.92;3.87;;;;;;;14.24;100.00;98060.30;1774183;80;21075;-76
2022/09/16 01:18:23;;;;;;;4.90;3.85;;;;;;;14.20;100.00;98066.30;1773937;80;21023;-76
2022/09/16 01:21:15;;;;;;;4.62;3.70;;;;;;;14.16;100.00;98070.14;1773996;80;21074;-76
2022/09/16 01:23:51;;;;;;;6.97;3.70;;;;;;;14.15;100.00;98060.98;1793674;80;21278;-76
2022/09/16 01:26:41;;;;;;;4.25;3.80;;;;;;;14.12;100.00;98060.27;1793661;80;21112;-76
2022/09/16 01:29:22;;;;;;;6.62;4.08;;;;;;;14.11;100.00;98061.70;1788665;80;21721;-77
2022/09/16 01:32:16;;;;;;;4.58;4.00;;;;;;;14.10;100.00;98066.15;1793318;80;21026;-76
2022/09/16 01:35:09;;;;;;;4.35;3.95;;;;;;;14.08;100.00;98060.59;1793495;80;20990;-75
2022/09/16 01:38:14;;;;;;;5.35;3.90;;;;;;;14.09;100.00;98060.48;1793704;80;21216;-76
2022/09/16 01:40:49;;;;;;;4.58;4.00;;;;;;;14.08;100.00;98065.87;1793162;80;21632;-76
2022/09/16 01:43:45;;;;;;;4.37;3.98;;;;;;;14.05;100.00;98066.92;1794108;80;21019;-77
2022/09/16 01:46:35;;;;;;;6.67;4.28;;;;;;;14.02;100.00;98076.89;1742560;82;21217;-76
2022/09/16 01:49:22;;;;;;;5.58;4.25;;;;;;;13.98;100.00;98083.36;1741233;82;21237;-77
2022/09/16 01:52:03;;;;;;;5.67;4.08;;;;;;;13.94;100.00;98084.06;1755274;81;21196;-77
2022/09/16 01:54:44;;;;;;;4.40;4.10;;;;;;;13.92;100.00;98072.77;1773990;80;21893;-75
2022/09/16 01:57:18;;;;;;;4.53;4.15;;;;;;;13.92;100.00;98079.37;1773975;80;21012;-77
2022/09/16 02:00:00;;;;;;;4.95;4.05;;;;;;;13.92;100.00;98092.11;1774090;80;20988;-77
2022/09/16 02:02:41;;;;;;;4.17;3.87;;;;;;;13.93;100.00;98091.62;1773753;80;21032;-76
2022/09/16 02:05:13;;;;;;;4.12;3.72;;;;;;;13.92;100.00;98080.69;1782371;80;21162;-76
2022/09/16 02:07:44;;;;;;;4.47;4.08;;;;;;;13.93;100.00;98075.75;1782511;80;21071;-76
2022/09/16 02:10:26;;;;;;;4.30;3.70;;;;;;;13.92;100.00;98078.05;1779527;80;21059;-76
2022/09/16 02:12:54;;;;;;;8.90;4.20;;;;;;;13.93;100.00;98070.47;1781741;80;21043;-76
2022/09/16 02:15:22;;;;;;;5.47;4.55;;;;;;;13.94;100.00;98076.13;1782636;80;21424;-75
2022/09/16 02:18:06;;;;;;;4.25;3.95;;;;;;;13.95;100.00;98075.16;1782376;80;22322;-76
2022/09/16 02:20:36;;;;;;;5.03;4.42;;;;;;;13.93;100.00;98080.55;1782155;80;20984;-75
2022/09/16 02:23:07;;;;;;;4.20;3.80;;;;;;;13.93;100.00;98073.11;1782713;80;21047;-75
2022/09/16 02:25:35;;;;;;;4.55;4.10;;;;;;;13.92;100.00;98080.69;1782410;80;21621;-76
2022/09/16 02:28:03;;;;;;;4.62;4.20;;;;;;;13.91;100.00;98078.50;1782252;80;21062;-76
2022/09/16 02:30:30;;;;;;;4.47;4.10;;;;;;;13.90;100.00;98083.44;1782583;80;21110;-76
2022/09/16 02:33:01;;;;;;;4.70;4.30;;;;;;;13.90;100.00;98075.97;1782075;80;20996;-76
2022/09/16 02:35:28;;;;;;;5.47;3.90;;;;;;;13.89;100.00;98080.91;1782470;80;21193;-76
2022/09/16 02:38:00;;;;;;;4.87;4.15;;;;;;;13.88;100.00;98084.00;1782298;80;21106;-77
2022/09/16 02:40:32;;;;;;;4.53;4.12;;;;;;;13.87;100.00;98078.82;1782130;80;21050;-77
2022/09/16 02:42:59;;;;;;;7.17;4.25;;;;;;;13.86;100.00;98087.73;1782325;80;21091;-77
2022/09/16 02:45:34;;;;;;;4.47;4.08;;;;;;;13.83;100.00;98085.30;1782273;80;21028;-76
2022/09/16 02:48:09;;;;;;;4.70;4.40;;;;;;;13.83;100.00;98083.48;1762541;80;21102;-75
2022/09/16 02:50:50;;;;;;;4.83;4.42;;;;;;;13.82;100.00;98088.87;1764655;80;21169;-76
2022/09/16 02:53:23;;;;;;;5.58;4.42;;;;;;;13.80;100.00;98084.19;1782379;80;20961;-75
2022/09/16 02:56:00;;;;;;;5.72;4.40;;;;;;;13.79;100.00;98082.52;1782280;80;21347;-76
2022/09/16 02:58:26;;;;;;;4.97;4.20;;;;;;;13.78;100.00;98077.69;1767791;80;21566;-77
2022/09/16 03:00:54;;;;;;;4.80;4.40;;;;;;;13.77;100.00;98084.39;1776527;80;21059;-76
2022/09/16 03:03:20;;;;;;;4.90;4.47;;;;;;;13.74;100.00;98084.98;1776546;80;21684;-76
2022/09/16 03:06:11;;;;;;;7.85;4.87;;;;;;;13.72;100.00;98079.45;1776606;80;21110;-76
2022/09/16 03:08:38;;;;;;;4.53;4.22;;;;;;;13.71;100.00;98074.63;1776944;80;21691;-76
2022/09/16 03:11:42;;;;;;;4.97;4.58;;;;;;;13.71;100.00;98087.84;1776556;80;21062;-75
2022/09/16 03:14:29;;;;;;;4.42;4.05;;;;;;;13.70;100.00;98086.17;1743105;80;21596;-76
2022/09/16 03:17:26;;;;;;;5.60;3.90;;;;;;;13.70;100.00;98094.55;1776315;80;21003;-76
2022/09/16 03:20:06;;;;;;;4.47;4.08;;;;;;;13.66;100.00;98093.93;1739590;80;21047;-77
2022/09/16 03:22:48;;;;;;;6.00;4.50;;;;;;;13.63;100.00;98091.50;1776474;80;21109;-76
2022/09/16 03:25:56;;;;;;;3.80;3.60;;;;;;;13.62;100.00;98096.44;1776980;80;21130;-77
2022/09/16 03:28:49;;;;;;;4.28;3.95;;;;;;;13.59;100.00;98096.64;1776627;80;21035;-76
2022/09/16 03:31:19;;;;;;;4.50;4.10;;;;;;;13.59;100.00;98099.28;1776670;80;21016;-75
2022/09/16 03:34:08;;;;;;;4.37;4.00;;;;;;;13.60;100.00;98093.52;1761086;80;21087;-74
2022/09/16 03:36:40;;;;;;;5.45;3.83;;;;;;;13.61;100.00;98092.58;1776813;80;21102;-76
2022/09/16 03:39:06;;;;;;;4.12;3.65;;;;;;;13.63;100.00;98082.25;1776462;80;21180;-76
2022/09/16 03:41:33;;;;;;;7.67;3.60;;;;;;;13.63;100.00;98078.28;1776705;80;21090;-76
2022/09/16 03:44:00;;;;;;;3.90;3.60;;;;;;;13.64;100.00;98079.98;1776758;80;21032;-76
2022/09/16 03:46:27;;;;;;;4.47;4.00;;;;;;;13.64;100.00;98077.34;1776575;80;21098;-76
2022/09/16 03:48:55;;;;;;;3.70;3.50;;;;;;;13.64;100.00;98081.31;1776902;80;21145;-75
2022/09/16 03:51:23;;;;;;;5.62;3.75;;;;;;;13.63;100.00;98081.41;1776290;80;21004;-75
2022/09/16 03:53:52;;;;;;;4.45;4.08;;;;;;;13.61;100.00;98092.09;1776612;80;21083;-76
2022/09/16 03:56:19;;;;;;;4.20;3.80;;;;;;;13.57;100.00;98095.91;1776138;80;21079;-76
2022/09/16 03:58:47;;;;;;;4.08;3.70;;;;;;;13.57;100.00;98093.27;1776488;80;22039;-76
2022/09/16 04:01:13;;;;;;;5.20;4.50;;;;;;;13.56;100.00;98094.20;1776835;80;21196;-75
2022/09/16 04:03:41;;;;;;;5.83;4.10;;;;;;;13.53;100.00;98101.89;1776413;80;20969;-76
2022/09/16 04:06:08;;;;;;;5.10;3.80;;;;;;;13.53;100.00;98103.66;1776816;80;21345;-77
2022/09/16 04:08:35;;;;;;;4.70;3.90;;;;;;;13.50;100.00;98097.27;1776765;80;21534;-76
2022/09/16 04:11:06;;;;;;;5.92;3.92;;;;;;;13.49;100.00;98088.98;1776463;80;21051;-76
2022/09/16 04:13:35;;;;;;;4.70;4.30;;;;;;;13.48;100.00;98095.22;1776512;80;21125;-76
2022/09/16 04:16:02;;;;;;;4.65;3.87;;;;;;;13.46;100.00;98111.66;1776446;80;21039;-76
2022/09/16 04:18:31;;;;;;;5.12;4.62;;;;;;;13.43;100.00;98119.34;1776730;80;21546;-76
2022/09/16 04:21:00;;;;;;;6.17;5.10;;;;;;;13.40;100.00;98126.59;1776446;80;21067;-76
2022/09/16 04:23:27;;;;;;;10.40;5.78;;;;;;;13.37;100.00;98129.83;1776910;80;21561;-75
2022/09/16 04:25:57;;;;;;;9.83;5.58;;;;;;;13.34;100.00;98123.42;1776517;80;22344;-76
2022/09/16 04:28:24;;;;;;;7.72;4.97;;;;;;;13.32;100.00;98112.61;1776810;80;21020;-75
2022/09/16 04:30:51;;;;;;;8.78;4.67;;;;;;;13.31;100.00;98113.03;1776524;80;21122;-75
2022/09/16 04:33:17;;;;;;;10.05;5.22;;;;;;;13.29;100.00;98121.54;1776716;80;21043;-76
2022/09/16 04:35:44;;;;;;;5.70;4.50;;;;;;;13.27;100.00;98126.09;1777050;80;20996;-74
2022/09/16 04:38:10;;;;;;;6.47;4.30;;;;;;;13.26;100.00;98128.83;1776509;80;21208;-75
2022/09/16 04:40:40;;;;;;;5.03;4.50;;;;;;;13.24;100.00;98136.02;1776781;80;20984;-75
2022/09/16 04:43:06;;;;;;;4.60;4.20;;;;;;;13.23;100.00;98143.11;1776567;80;21138;-75
2022/09/16 04:45:33;;;;;;;4.90;4.45;;;;;;;13.21;100.00;98138.38;1776755;80;21110;-74
2022/09/16 04:48:00;;;;;;;6.70;4.20;;;;;;;13.22;100.00;98133.48;1776556;80;21050;-76
2022/09/16 04:50:26;;;;;;;4.25;3.95;;;;;;;13.23;100.00;98131.22;1776563;80;21139;-75
2022/09/16 04:52:53;;;;;;;5.65;3.92;;;;;;;13.22;100.00;98133.48;1776735;80;21044;-75
2022/09/16 04:55:24;;;;;;;5.55;4.58;;;;;;;13.25;100.00;98145.16;1776554;80;21051;-76
2022/09/16 04:57:49;;;;;;;4.40;4.10;;;;;;;13.26;100.00;98142.88;1775545;80;21608;-78
2022/09/16 05:00:16;;;;;;;5.05;4.15;;;;;;;13.28;100.00;98151.56;1780915;80;21054;-77
2022/09/16 05:02:45;;;;;;;7.15;4.53;;;;;;;13.28;100.00;98166.55;1785759;80;21135;-77
2022/09/16 05:05:12;;;;;;;4.42;3.95;;;;;;;13.27;100.00;98169.67;1786125;80;21052;-77
2022/09/16 05:07:40;;;;;;;5.90;4.50;;;;;;;13.29;100.00;98166.45;1785890;79;21204;-78
2022/09/16 05:10:07;;;;;;;6.78;4.78;;;;;;;13.30;100.00;98165.51;1786232;80;21114;-77
2022/09/16 05:12:35;;;;;;;7.55;4.60;;;;;;;13.34;100.00;98164.37;1785693;80;21059;-75
2022/09/16 05:15:03;;;;;;;5.12;4.28;;;;;;;13.33;100.00;98157.41;1785641;80;21111;-75
2022/09/16 05:17:30;;;;;;;11.83;4.70;;;;;;;13.36;100.00;98153.70;1785968;80;21044;-75
2022/09/16 05:19:57;;;;;;;9.33;4.53;;;;;;;13.40;100.00;98163.13;1785779;80;20961;-78
2022/09/16 05:22:23;;;;;;;9.58;4.20;;;;;;;13.44;100.00;98160.63;1786334;79;21035;-78
2022/09/16 05:24:50;;;;;;;5.53;4.37;;;;;;;13.45;100.00;98164.11;1785892;80;21035;-76
2022/09/16 05:27:17;;;;;;;4.55;4.25;;;;;;;13.46;100.00;98161.86;1786268;80;21160;-76
2022/09/16 05:29:44;;;;;;;6.78;4.87;;;;;;;13.47;100.00;98170.16;1785964;80;20979;-75
2022/09/16 05:32:10;;;;;;;7.10;4.33;;;;;;;13.47;100.00;98175.45;1785463;80;20972;-75
2022/09/16 05:34:38;;;;;;;4.85;4.40;;;;;;;13.47;100.00;98171.48;1785959;79;21574;-76
2022/09/16 05:37:05;;;;;;;5.20;4.47;;;;;;;13.47;100.00;98179.41;1785883;80;21016;-77
2022/09/16 05:39:31;;;;;;;4.97;4.58;;;;;;;13.44;100.00;98182.26;1786197;80;21114;-76
2022/09/16 05:41:58;;;;;;;7.05;5.28;;;;;;;13.43;100.00;98176.59;1785642;79;21059;-77
2022/09/16 05:44:26;;;;;;;4.35;3.95;;;;;;;13.42;100.00;98179.72;1786155;79;21003;-75
2022/09/16 05:46:54;;;;;;;6.67;4.67;;;;;;;13.44;100.00;98187.54;1785690;80;22256;-77
2022/09/16 05:49:22;;;;;;;4.70;4.30;;;;;;;13.44;100.00;98182.26;1785542;79;21533;-77
2022/09/16 05:51:49;;;;;;;5.42;4.97;;;;;;;13.46;100.00;98177.70;1785818;79;21098;-78
2022/09/16 05:54:17;;;;;;;5.10;4.65;;;;;;;13.49;100.00;98173.55;1785519;79;21035;-78
2022/09/16 05:56:44;;;;;;;9.63;4.67;;;;;;;13.51;100.00;98174.28;1785998;80;21007;-75
2022/09/16 05:59:11;;;;;;;8.33;5.67;;;;;;;13.53;100.00;98178.97;1785719;79;21075;-77
2022/09/16 06:01:39;;;;;;;9.05;4.78;;;;;;;13.56;100.00;98176.12;1777330;79;21526;-77
2022/09/16 06:04:06;;;;;;;5.42;4.80;;;;;;;13.62;100.00;98184.97;1776675;80;22422;-76
2022/09/16 06:06:39;;;;;;;5.03;4.60;;;;;;;13.67;100.00;98184.17;1776524;80;21134;-76
2022/09/16 06:09:18;;;;;;;5.50;4.72;;;;;;;13.70;100.00;98181.33;1776566;80;21071;-76
2022/09/16 06:11:47;;;;;;;8.83;5.00;;;;;;;13.73;100.00;98175.83;1776687;80;21080;-76
2022/09/16 06:14:14;;;;;;;5.62;5.12;;;;;;;13.77;100.00;98177.78;1777054;80;21055;-75
2022/09/16 06:16:42;;;;;;;8.28;5.12;;;;;;;13.79;100.00;98177.69;1776667;80;21141;-76
2022/09/16 06:19:14;;;;;;;5.90;5.35;;;;;;;13.82;100.00;98177.44;1776605;80;21008;-75
2022/09/16 06:21:42;;;;;;;5.90;5.40;;;;;;;13.87;100.00;98176.64;1776461;80;21154;-75
2022/09/16 06:24:10;;;;;;;5.85;4.87;;;;;;;13.92;100.00;98175.39;1776627;80;21110;-78
2022/09/16 06:26:38;;;;;;;8.23;5.25;;;;;;;14.02;100.00;98183.53;1776540;80;21063;-76
2022/09/16 06:29:05;;;;;;;6.62;4.75;;;;;;;14.09;100.00;98181.30;1776905;80;21084;-76
2022/09/16 06:31:31;;;;;;;7.37;5.12;;;;;;;14.20;100.00;98180.53;1776353;80;20989;-77
2022/09/16 06:33:58;;;;;;;5.72;5.22;;;;;;;14.25;100.00;98183.70;1776779;80;21083;-78
2022/09/16 06:36:31;;;;;;;5.50;5.10;;;;;;;14.30;100.00;98189.50;1776626;80;21071;-79
2022/09/16 06:38:58;;;;;;;5.72;5.22;;;;;;;14.34;100.00;98193.64;1776229;80;21078;-77
2022/09/16 06:41:25;;;;;;;5.10;4.70;;;;;;;14.40;100.00;98193.18;1776452;80;22135;-77
2022/09/16 06:43:51;;;;;;;6.17;5.58;;;;;;;14.48;100.00;98188.67;1776710;80;21589;-77
2022/09/16 06:46:21;;;;;;;9.30;5.50;;;;;;;14.59;100.00;98194.53;1776450;80;21652;-78
2022/09/16 06:48:50;;;;;;;6.67;5.70;;;;;;;14.68;100.00;98199.18;1776688;80;21043;-77
2022/09/16 06:51:22;;;;;;;7.75;5.45;;;;;;;14.75;100.00;98195.13;1776647;80;21060;-77
2022/09/16 06:53:49;;;;;;;6.17;5.58;;;;;;;14.79;100.00;98193.09;1776374;80;21629;-76
2022/09/16 06:56:18;;;;;;;5.72;5.22;;;;;;;14.84;100.00;98202.41;1776870;80;21767;-76
2022/09/16 06:58:47;;;;;;;6.70;5.97;;;;;;;14.86;100.00;98201.81;1776784;80;21032;-76
2022/09/16 07:01:19;;;;;;;7.75;6.78;;;;;;;14.89;100.00;98214.45;1776522;80;21091;-76
2022/09/16 07:03:48;;;;;;;8.75;6.40;;;;;;;14.90;100.00;98214.34;1776234;80;20996;-77
2022/09/16 07:06:16;;;;;;;6.85;6.20;;;;;;;14.95;100.00;98214.02;1776284;80;21621;-77
2022/09/16 07:08:43;;;;;;;7.08;6.37;;;;;;;14.99;100.00;98225.57;1776320;80;21061;-76
2022/09/16 07:11:14;;;;;;;8.05;5.87;;;;;;;15.04;100.00;98223.92;1776208;80;21459;-76
2022/09/16 07:13:41;;;;;;;7.72;6.25;;;;;;;15.06;100.00;98224.64;1775713;80;21060;-76
2022/09/16 07:16:10;;;;;;;8.93;5.83;;;;;;;15.08;100.00;98230.70;1776351;80;21163;-77
2022/09/16 07:18:37;;;;;;;8.43;6.12;;;;;;;15.07;100.00;98230.31;1776745;80;21163;-77
2022/09/16 07:21:16;;;;;;;10.03;5.83;;;;;;;15.08;100.00;98238.64;1776445;80;21016;-77
2022/09/16 07:23:43;;;;;;;9.95;5.90;;;;;;;15.11;100.00;98238.39;1776443;80;21071;-76
2022/09/16 07:26:13;;;;;;;6.62;5.80;;;;;;;15.20;100.00;98236.41;1776808;80;21126;-76
2022/09/16 07:28:41;;;;;;;10.53;5.65;;;;;;;15.30;100.00;98234.38;1776682;80;21039;-77
2022/09/16 07:31:11;;;;;;;8.30;5.37;;;;;;;15.38;100.00;98233.33;1776890;80;21530;-76
2022/09/16 07:33:41;;;;;;;5.92;5.37;;;;;;;15.44;100.00;98233.37;1776435;80;21090;-76
2022/09/16 07:36:10;;;;;;;6.05;5.30;;;;;;;15.52;100.00;98229.17;1776754;80;21100;-76
2022/09/16 07:38:37;;;;;;;8.35;5.75;;;;;;;15.64;100.00;98229.22;1776648;80;21000;-76
2022/09/16 07:41:12;;;;;;;8.45;5.30;;;;;;;15.76;100.00;98215.04;1776809;80;21499;-76
2022/09/16 07:43:40;;;;;;;8.08;5.12;;;;;;;15.89;100.00;98225.07;1776307;80;21147;-76
2022/09/16 07:46:09;;;;;;;9.20;4.95;;;;;;;16.04;100.00;98222.17;1776317;80;21563;-76
2022/09/16 07:48:36;;;;;;;5.00;4.60;;;;;;;16.17;99.88;98216.27;1776551;80;20988;-76
2022/09/16 07:51:09;;;;;;;7.17;4.25;;;;;;;16.32;99.29;98223.05;1776696;80;21535;-76
2022/09/16 07:53:35;;;;;;;8.53;4.30;;;;;;;16.46;98.54;98227.75;1776542;80;21095;-77
2022/09/16 07:56:04;;;;;;;3.75;3.42;;;;;;;16.53;96.70;98230.27;1776416;80;21771;-76
2022/09/16 07:58:31;;;;;;;6.28;3.27;;;;;;;16.53;93.30;98232.93;1776375;80;21577;-76
2022/09/16 08:00:58;;;;;;;4.58;3.12;;;;;;;16.49;91.97;98234.13;1778432;80;21051;-76
2022/09/16 08:03:24;;;;;;;3.55;2.80;;;;;;;16.42;90.32;98231.60;1782343;80;21063;-75
2022/09/16 08:05:51;;;;;;;5.00;3.00;;;;;;;16.41;90.03;98232.09;1782556;79;21071;-76
2022/09/16 08:08:18;;;;;;;3.40;3.08;;;;;;;16.44;90.71;98230.98;1782437;80;21542;-77
2022/09/16 08:10:54;;;;;;;3.70;3.37;;;;;;;16.50;90.74;98234.49;1782503;80;21055;-76
2022/09/16 08:13:21;;;;;;;3.37;3.08;;;;;;;16.55;90.09;98227.01;1782514;80;21090;-76
2022/09/16 08:15:47;;;;;;;4.45;3.40;;;;;;;16.65;90.43;98218.66;1782654;80;21333;-77
2022/09/16 08:18:14;;;;;;;7.15;3.15;;;;;;;16.79;90.02;98214.88;1782343;80;21027;-76
2022/09/16 08:20:40;;;;;;;5.83;2.87;;;;;;;16.92;87.89;98216.59;1782782;80;21227;-77
2022/09/16 08:23:07;;;;;;;3.37;3.00;;;;;;;17.02;88.42;98225.50;1782476;79;20964;-77
2022/09/16 08:25:35;;;;;;;5.10;3.12;;;;;;;17.13;86.77;98222.81;1782363;79;20992;-76
2022/09/16 08:28:03;;;;;;;3.80;3.10;;;;;;;17.22;85.96;98218.55;1782670;79;21106;-77
2022/09/16 08:30:29;;;;;;;4.30;3.22;;;;;;;17.33;85.46;98218.50;1782457;80;21066;-77
2022/09/16 08:32:57;;;;;;;5.78;3.10;;;;;;;17.38;83.88;98214.98;1782903;79;21085;-77
2022/09/16 08:35:24;;;;;;;4.30;2.83;;;;;;;17.45;82.63;98220.62;1782442;79;21099;-75
2022/09/16 08:37:52;;;;;;;7.33;3.00;;;;;;;17.54;82.19;98222.99;1782699;79;21000;-76
2022/09/16 08:40:23;;;;;;;5.90;3.35;;;;;;;17.58;80.62;98219.09;1782557;80;21060;-77
2022/09/16 08:43:16;;;;;;;3.33;2.90;;;;;;;17.64;80.94;98218.58;1782349;79;21163;-77
2022/09/16 08:45:56;;;;;;;4.97;2.70;;;;;;;17.77;80.19;98221.89;1782638;80;21109;-78
2022/09/16 08:48:45;;;;;;;5.35;2.98;;;;;;;17.95;77.79;98219.98;1782481;79;21043;-77
2022/09/16 08:51:14;;;;;;;3.15;2.60;;;;;;;18.04;77.80;98221.87;1782439;80;20992;-76
2022/09/16 08:53:58;;;;;;;3.52;2.72;;;;;;;18.11;78.08;98219.02;1782383;79;21557;-77
2022/09/16 08:56:26;;;;;;;5.15;2.77;;;;;;;18.19;77.16;98215.21;1782555;79;21035;-77
2022/09/16 08:58:59;;;;;;;3.05;2.55;;;;;;;18.27;77.56;98218.52;1782330;80;21128;-77
2022/09/16 09:01:50;;;;;;;3.58;2.80;;;;;;;18.41;74.58;98221.33;1780982;80;21062;-76
2022/09/16 09:04:17;;;;;;;3.62;2.75;;;;;;;18.42;72.90;98215.00;1776327;80;21070;-77
2022/09/16 09:06:55;;;;;;;7.20;2.70;;;;;;;18.34;73.16;98211.70;1776508;80;21032;-76
2022/09/16 09:10:00;;;;;;;3.58;2.87;;;;;;;18.33;73.40;98217.16;1776437;80;21182;-77
2022/09/16 09:12:35;;;;;;;6.37;3.08;;;;;;;18.34;75.24;98200.19;1776325;80;21642;-76
2022/09/16 09:15:33;;;;;;;4.47;2.98;;;;;;;18.52;73.72;98209.22;1776650;80;21178;-77
2022/09/16 09:18:41;;;;;;;7.35;2.65;;;;;;;18.68;73.78;98215.88;1776717;80;21019;-76
2022/09/16 09:21:31;;;;;;;4.78;2.77;;;;;;;18.84;73.53;98216.20;1776460;80;21027;-76
2022/09/16 09:24:24;;;;;;;3.58;2.65;;;;;;;19.00;71.98;98214.84;1776923;80;21637;-76
2022/09/16 09:27:15;;;;;;;8.33;2.83;;;;;;;19.16;72.11;98220.45;1776448;80;21136;-76
2022/09/16 09:30:05;;;;;;;3.55;2.95;;;;;;;19.35;69.83;98224.11;1776843;80;21640;-76
2022/09/16 09:33:08;;;;;;;3.22;2.65;;;;;;;19.46;68.68;98220.80;1776737;80;21645;-76
2022/09/16 09:36:02;;;;;;;4.42;2.50;;;;;;;19.53;66.93;98210.91;1739790;82;21037;-75
2022/09/16 09:39:03;;;;;;;4.25;2.35;;;;;;;19.60;67.69;98212.02;1749778;81;21038;-76
2022/09/16 09:41:36;;;;;;;2.85;2.50;;;;;;;19.78;66.96;98212.17;1819357;78;22255;-74
2022/09/16 09:44:26;;;;;;;4.87;2.58;;;;;;;19.88;65.72;98215.66;1757359;80;21057;-75
2022/09/16 09:46:56;;;;;;;3.60;2.67;;;;;;;19.96;64.44;98217.11;1787844;80;21054;-77
2022/09/16 09:49:36;;;;;;;3.22;2.22;;;;;;;20.00;64.24;98214.48;1787925;80;21424;-78
2022/09/16 09:52:21;;;;;;;4.35;2.17;;;;;;;20.11;60.93;98221.50;1787866;80;21081;-78
2022/09/16 09:54:51;;;;;;;3.10;2.50;;;;;;;20.18;62.10;98223.09;1788096;80;21839;-78
2022/09/16 09:57:32;;;;;;;5.35;2.30;;;;;;;20.28;61.38;98223.91;1788231;80;21031;-76
2022/09/16 10:00:11;;;;;;;6.22;2.67;;;;;;;20.26;60.93;98226.36;1788178;80;21042;-75
2022/09/16 10:02:43;;;;;;;5.35;2.30;;;;;;;20.18;61.51;98227.94;1788410;80;21541;-75
2022/09/16 10:05:23;;;;;;;3.22;2.27;;;;;;;20.10;59.65;98229.16;1788604;80;20991;-76
2022/09/16 10:07:51;;;;;;;3.52;2.12;;;;;;;19.97;60.15;98229.48;1793834;80;21099;-75
2022/09/16 10:10:23;;;;;;;4.15;2.10;;;;;;;19.91;61.17;98229.22;1793641;80;21077;-75
2022/09/16 10:12:49;;;;;;;5.95;2.50;;;;;;;19.94;60.44;98243.13;1794097;80;21655;-76
2022/09/16 10:15:26;;;;;;;6.28;2.37;;;;;;;19.96;61.44;98230.46;1793633;80;21042;-75
2022/09/16 10:17:54;;;;;;;6.42;2.15;;;;;;;19.95;60.21;98234.11;1793660;80;21030;-76
2022/09/16 10:20:37;;;;;;;5.17;2.08;;;;;;;19.90;60.26;98228.36;1793709;80;21251;-76
2022/09/16 10:23:14;;;;;;;3.10;2.12;;;;;;;19.95;59.49;98231.44;1794160;80;21537;-76
2022/09/16 10:25:41;;;;;;;2.65;2.30;;;;;;;19.87;57.18;98243.36;1793546;80;21034;-77
2022/09/16 10:28:23;;;;;;;3.00;2.60;;;;;;;19.77;59.57;98251.84;1793541;80;21014;-76
2022/09/16 10:30:53;;;;;;;5.42;2.60;;;;;;;19.78;59.81;98244.20;1793612;80;21061;-78
2022/09/16 10:33:42;;;;;;;5.12;2.58;;;;;;;19.90;61.63;98247.05;1793686;80;21075;-77
2022/09/16 10:36:12;;;;;;;4.75;2.10;;;;;;;20.15;60.61;98242.08;1793689;80;21172;-74
2022/09/16 10:38:48;;;;;;;2.98;2.50;;;;;;;20.35;60.08;98237.01;1793958;80;21045;-76
2022/09/16 10:41:19;;;;;;;3.58;2.20;;;;;;;20.47;58.47;98253.69;1792676;80;20999;-75
2022/09/16 10:43:50;;;;;;;8.10;2.42;;;;;;;20.47;58.79;98239.50;1793928;80;21045;-77
2022/09/16 10:46:17;;;;;;;4.58;2.87;;;;;;;20.29;55.87;98252.30;1793630;80;21903;-76
2022/09/16 10:48:44;;;;;;;4.20;2.40;;;;;;;19.94;57.10;98243.59;1793436;80;21042;-78
2022/09/16 10:51:25;;;;;;;3.62;2.30;;;;;;;19.69;58.37;98247.20;1793535;80;21627;-78
2022/09/16 10:53:59;;;;;;;5.10;3.08;;;;;;;19.62;59.23;98238.92;1793594;80;21034;-78
2022/09/16 10:56:32;;;;;;;5.00;2.37;;;;;;;19.83;60.22;98249.44;1794319;80;22201;-76
2022/09/16 10:59:07;;;;;;;2.20;1.95;;;;;;;20.14;60.32;98241.72;1794191;80;21136;-76
2022/09/16 11:02:05;;;;;;;3.37;2.40;;;;;;;20.32;57.97;98242.64;1791877;80;21333;-76
2022/09/16 11:04:46;;;;;;;6.12;2.40;;;;;;;20.34;58.43;98234.01;1776250;80;21678;-76
2022/09/16 11:07:55;;;;;;;5.37;2.30;;;;;;;20.38;58.52;98227.88;1793765;80;21006;-75
2022/09/16 11:11:02;;;;;;;4.17;2.83;;;;;;;20.50;59.36;98224.02;1794117;80;21555;-74
2022/09/16 11:14:03;;;;;;;4.50;2.35;;;;;;;20.59;57.11;98232.49;1793784;80;21080;-76
2022/09/16 11:16:56;;;;;;;7.87;2.80;;;;;;;20.54;55.75;98236.58;1793556;80;21599;-76
2022/09/16 11:19:41;;;;;;;3.20;2.90;;;;;;;20.43;56.44;98246.14;1794268;80;21113;-75
2022/09/16 11:22:37;;;;;;;5.67;2.37;;;;;;;20.26;55.77;98241.91;1794051;80;21117;-76
2022/09/16 11:25:33;;;;;;;4.37;2.60;;;;;;;20.12;56.74;98245.03;1794024;80;21100;-75
2022/09/16 11:28:38;;;;;;;4.85;2.33;;;;;;;20.07;57.57;98253.47;1793956;80;21264;-76
2022/09/16 11:31:31;;;;;;;4.47;2.67;;;;;;;19.92;56.73;98251.77;1793967;80;20923;-77
2022/09/16 11:34:21;;;;;;;4.15;2.58;;;;;;;19.70;57.87;98250.70;1792640;80;21084;-77
2022/09/16 11:36:56;;;;;;;6.45;2.65;;;;;;;19.61;59.53;98253.23;1794209;80;21101;-77
2022/09/16 11:39:31;;;;;;;5.22;3.20;;;;;;;19.71;58.95;98245.73;1793058;80;21045;-77
2022/09/16 11:42:27;;;;;;;4.90;2.55;;;;;;;19.75;57.54;98243.14;1793834;80;22079;-77
2022/09/16 11:45:24;;;;;;;5.65;2.50;;;;;;;19.80;57.75;98251.09;1793686;80;21006;-79
2022/09/16 11:48:18;;;;;;;3.22;2.37;;;;;;;19.95;58.31;98238.11;1793821;79;21121;-75
2022/09/16 11:51:30;;;;;;;3.58;2.50;;;;;;;20.12;55.98;98241.02;1794128;79;21517;-78
2022/09/16 11:54:32;;;;;;;5.45;2.25;;;;;;;20.27;56.20;98246.24;1793901;80;21034;-77
2022/09/16 11:57:02;;;;;;;4.03;2.10;;;;;;;20.49;55.61;98247.70;1794216;80;21117;-76
2022/09/16 11:59:41;;;;;;;3.45;2.42;;;;;;;20.57;55.14;98254.99;1794002;80;21058;-78
2022/09/16 12:02:18;;;;;;;4.05;2.08;;;;;;;20.54;55.23;98245.93;1794061;80;21097;-77